createdAt,value
2017-08-13T00:00:05.000Z,19
2017-08-13T00:10:01.000Z,19
2017-08-13T00:20:01.000Z,19
2017-08-13T00:30:02.000Z,18.9
2017-08-13T00:40:01.000Z,18.9
2017-08-13T00:50:01.000Z,18.8
2017-08-13T01:00:01.000Z,18.8
2017-08-13T01:10:02.000Z,18.8
2017-08-13T01:20:01.000Z,18.8
2017-08-13T01:30:01.000Z,18.8
2017-08-13T01:40:02.000Z,18.8
2017-08-13T01:50:01.000Z,18.8
2017-08-13T02:00:01.000Z,18.7
2017-08-13T02:10:02.000Z,18.7
2017-08-13T02:20:01.000Z,18.7
2017-08-13T02:30:01.000Z,18.6
2017-08-13T02:40:05.000Z,18.6
2017-08-13T02:50:01.000Z,18.6
2017-08-13T03:00:01.000Z,18.6
2017-08-13T03:10:02.000Z,18.6
2017-08-13T03:20:01.000Z,18.6
2017-08-13T03:30:01.000Z,18.6
2017-08-13T03:40:02.000Z,18.6
2017-08-13T03:50:01.000Z,18.6
2017-08-13T04:00:01.000Z,18.6
2017-08-13T04:10:02.000Z,18.6
2017-08-13T04:20:01.000Z,18.6
2017-08-13T04:30:01.000Z,18.6
2017-08-13T04:40:02.000Z,18.6
2017-08-13T04:50:01.000Z,18.6
2017-08-13T05:00:01.000Z,18.6
2017-08-13T05:10:02.000Z,18.6
2017-08-13T05:20:05.000Z,18.6
2017-08-13T05:30:02.000Z,18.6
2017-08-13T05:40:01.000Z,18.8
2017-08-13T05:50:01.000Z,18.8
2017-08-13T06:00:01.000Z,18.9
2017-08-13T06:10:01.000Z,19
2017-08-13T06:20:01.000Z,19.1
2017-08-13T06:30:01.000Z,19.1
2017-08-13T06:40:01.000Z,19.1
2017-08-13T06:50:01.000Z,19.1
2017-08-13T07:00:01.000Z,19.1
2017-08-13T07:10:01.000Z,19.3
2017-08-13T07:20:01.000Z,19.4
2017-08-13T07:30:01.000Z,19.4
2017-08-13T07:40:01.000Z,19.5
2017-08-13T07:50:01.000Z,19.5
2017-08-13T08:00:04.000Z,19.6
2017-08-13T08:10:01.000Z,19.6
2017-08-13T08:20:01.000Z,19.7
2017-08-13T08:30:02.000Z,19.8
2017-08-13T08:40:01.000Z,19.8
2017-08-13T08:50:01.000Z,19.9
2017-08-13T09:00:01.000Z,20
2017-08-13T09:10:02.000Z,20.2
2017-08-13T09:20:02.000Z,20.3
2017-08-13T09:30:02.000Z,20.3
2017-08-13T09:40:01.000Z,20.3
2017-08-13T09:50:01.000Z,20.3
2017-08-13T10:00:02.000Z,20.3
2017-08-13T10:10:01.000Z,20.3
2017-08-13T10:20:01.000Z,20.3
2017-08-13T10:30:01.000Z,20.6
2017-08-13T10:40:05.000Z,20.7
2017-08-13T10:50:01.000Z,20.8
2017-08-13T11:00:01.000Z,20.4
2017-08-13T11:10:02.000Z,20.3
2017-08-13T11:20:01.000Z,20.3
2017-08-13T11:30:01.000Z,20.3
2017-08-13T11:40:02.000Z,20.3
2017-08-13T11:50:01.000Z,20.7
2017-08-13T12:00:01.000Z,20.9
2017-08-13T12:10:01.000Z,21
2017-08-13T12:20:01.000Z,21.1
2017-08-13T12:30:01.000Z,21.1
2017-08-13T12:40:02.000Z,21.1
2017-08-13T12:50:01.000Z,20.9
2017-08-13T13:00:01.000Z,20.9
2017-08-13T13:10:01.000Z,20.8
2017-08-13T13:20:05.000Z,20.6
2017-08-13T13:30:01.000Z,20.5
2017-08-13T13:40:01.000Z,20.3
2017-08-13T13:50:01.000Z,20.3
2017-08-13T14:00:01.000Z,20.3
2017-08-13T14:10:01.000Z,20.9
2017-08-13T14:20:02.000Z,20.7
2017-08-13T14:30:01.000Z,20.7
2017-08-13T14:40:01.000Z,20.7
2017-08-13T14:50:02.000Z,20.7
2017-08-13T15:00:01.000Z,20.7
2017-08-13T15:10:01.000Z,20.7
2017-08-13T15:20:01.000Z,20.7
2017-08-13T15:30:01.000Z,20.6
2017-08-13T15:40:01.000Z,20.7
2017-08-13T15:50:01.000Z,20.7
2017-08-13T16:00:05.000Z,20.6
2017-08-13T16:10:01.000Z,20.6
2017-08-13T16:20:01.000Z,20.4
2017-08-13T16:30:01.000Z,20.3
2017-08-13T16:40:01.000Z,20.3
2017-08-13T16:50:01.000Z,20.3
2017-08-13T17:00:01.000Z,20.3
2017-08-13T17:10:02.000Z,20.3
2017-08-13T17:20:02.000Z,20.3
2017-08-13T17:30:01.000Z,20.3
2017-08-13T17:40:01.000Z,20.3
2017-08-13T17:50:01.000Z,20.3
2017-08-13T18:00:01.000Z,20.3
2017-08-13T18:10:01.000Z,20.3
2017-08-13T18:20:01.000Z,20.3
2017-08-13T18:30:01.000Z,20.3
2017-08-13T18:40:05.000Z,20.3
2017-08-13T18:50:01.000Z,20.3
2017-08-13T19:00:01.000Z,20.3
2017-08-13T19:10:01.000Z,20.3
2017-08-13T19:20:01.000Z,20.3
2017-08-13T19:30:02.000Z,20.3
2017-08-13T19:40:01.000Z,20.3
2017-08-13T19:50:01.000Z,20.3
2017-08-13T20:00:02.000Z,20.3
2017-08-13T20:10:01.000Z,20.3
2017-08-13T20:20:01.000Z,20.3
2017-08-13T20:30:02.000Z,20.3
2017-08-13T20:40:01.000Z,20.3
2017-08-13T20:50:01.000Z,20.3
2017-08-13T21:00:02.000Z,20.2
2017-08-13T21:10:02.000Z,20.2
2017-08-13T21:20:05.000Z,20
2017-08-13T21:30:01.000Z,20
2017-08-13T21:40:02.000Z,20
2017-08-13T21:50:01.000Z,19.9
2017-08-13T22:00:01.000Z,19.9
2017-08-13T22:10:01.000Z,19.8
2017-08-13T22:20:01.000Z,19.7
2017-08-13T22:30:01.000Z,19.7
2017-08-13T22:40:01.000Z,19.7
2017-08-13T22:50:01.000Z,19.7
2017-08-13T23:00:01.000Z,19.6
2017-08-13T23:10:01.000Z,19.6
2017-08-13T23:20:02.000Z,19.6
2017-08-13T23:30:01.000Z,19.6
2017-08-13T23:40:01.000Z,19.6
2017-08-13T23:50:01.000Z,19.5
